Estación Meteorológica Peña el Pijo (Robertgarden) [ 12/17/17 01:26:29 CET ]

Fecha Hora Presion(HPa) Temp (°C) Humedad % Rocio (°C) Viento ( m/s) Direccion Lluvia 1Hora(mm) Lluvia 24H(mm) LLuvia Total(mm)
2017-Oct-27 01:01:52 1020.600 6.3 59 -1.1         1466.45
2017-Oct-27 02:01:50 1020.100 5.8 61 -1.2         1466.45
2017-Oct-27 03:02:19 1019.800 4.8 61 -2.1         1466.45
2017-Oct-27 04:02:19 1019.800 3.3 67 -2.3         1466.45
2017-Oct-27 05:02:08 1019.600 2.7 69 -2.4         1466.45
2017-Oct-27 06:02:08 1019.500 2.4 70 -2.5         1466.45
2017-Oct-27 07:01:47 1019.500 2.8 69 -2.3         1466.45
2017-Oct-27 08:01:48 1019.500 3.2 68 -2.1         1466.45
2017-Oct-27 09:01:44 1019.700 3.5 66 -2.3         1466.45
2017-Oct-27 10:01:43 1020.000 9.0 62 2.1         1466.45
2017-Oct-27 11:01:41 1019.900 18.4 37 3.4         1466.45
2017-Oct-27 12:01:35 1019.600 25.9 24 3.5         1466.45
2017-Oct-27 13:01:35 1019.300 27.4 19 1.6         1466.45
2017-Oct-27 14:01:39 1018.400 27.8 16 -0.9 1.6 SW     1466.45
2017-Oct-27 15:01:41 1017.600 29.2 16 0.2         1466.45
2017-Oct-27 16:01:48 1017.100 29.9 13 -2.1         1466.45
2017-Oct-27 17:01:48 1017.000 29.3 13 -2.6         1466.45
2017-Oct-27 18:01:49 1016.700 27.1 16 -1.5         1466.45
2017-Oct-27 19:01:48 1016.900 21.0 23 -1.1         1466.45
2017-Oct-27 20:01:40 1017.300 16.9 29 -1.3         1466.45
2017-Oct-27 21:01:54 1017.700 13.1 37 -1.4         1466.45
2017-Oct-27 22:01:53 1018.000 10.4 44 -1.4         1466.45
2017-Oct-27 23:01:55 1018.000 9.6 47 -1.2         1466.45

Temperatura Máxima:29°    Temperatura Mínima:
Presión Máxima:1020.600 Hpa    Presión Mínima:1016.700 Hpa


Volver